Time;durP1;ratioP1;P1;durP2;ratioP2;P2;SDS_P1;SDS_P2;PMS_P1;PMS_P2;Temp;Humidity;BMP_temperature;BMP_pressure;BME280_temperature;BME280_humidity;BME280_pressure;Samples;Min_cycle;Max_cycle;Signal;HPM_P1;HPM_P2
2022/04/30 00:00:04;;;;;;;;;38.75;31.75;;;;;11.39;60.50;102321.13;5039807;28;45477;-70
2022/04/30 00:02:30;;;;;;;;;32.75;26.00;;;;;11.35;61.37;102320.28;5039477;28;46009;-70
2022/04/30 00:04:55;;;;;;;;;37.00;32.50;;;;;11.31;62.25;102334.19;5038416;28;45369;-71
2022/04/30 00:07:21;;;;;;;;;34.50;29.00;;;;;11.20;61.39;102326.44;5038988;28;45359;-71
2022/04/30 00:09:47;;;;;;;;;34.50;28.50;;;;;11.12;63.91;102330.81;5038343;28;46656;-70
2022/04/30 00:12:15;;;;;;;;;33.50;27.25;;;;;11.11;61.93;102330.81;5036905;28;45486;-69
2022/04/30 00:14:40;;;;;;;;;45.25;35.25;;;;;11.09;61.24;102332.56;5039469;28;45422;-67
2022/04/30 00:17:06;;;;;;;;;34.00;28.50;;;;;11.06;61.64;102332.59;5037949;28;46613;-67
2022/04/30 00:19:31;;;;;;;;;36.75;34.25;;;;;11.06;62.28;102328.25;5038734;28;45415;-69
2022/04/30 00:21:57;;;;;;;;;40.50;35.25;;;;;11.09;61.43;102328.22;5038794;28;45433;-67
2022/04/30 00:24:26;;;;;;;;;40.00;31.25;;;;;11.08;61.82;102325.63;5049029;28;45566;-68
2022/04/30 00:26:53;;;;;;;;;36.25;30.50;;;;;11.05;61.96;102326.53;5050953;28;45505;-67
2022/04/30 00:29:19;;;;;;;;;36.75;28.00;;;;;11.03;64.19;102322.19;5051397;28;45301;-67
2022/04/30 00:31:44;;;;;;;;;38.25;34.25;;;;;11.04;62.50;102329.13;5049686;28;45411;-67
2022/04/30 00:34:10;;;;;;;;;42.00;33.50;;;;;11.01;62.11;102329.13;5049893;28;47438;-67
2022/04/30 00:36:36;;;;;;;;;40.75;30.75;;;;;10.98;64.54;102327.41;5050798;28;45314;-67
2022/04/30 00:39:02;;;;;;;;;45.25;32.50;;;;;10.94;65.94;102338.69;5051660;28;45461;-67
2022/04/30 00:41:27;;;;;;;;;45.50;36.25;;;;;10.87;63.68;102337.84;5049522;28;45243;-67
2022/04/30 00:43:54;;;;;;;;;44.50;36.00;;;;;10.84;64.18;102343.06;5050968;28;45247;-67
2022/04/30 00:46:22;;;;;;;;;48.75;36.25;;;;;10.77;62.91;102337.88;5050891;28;45272;-67
2022/04/30 00:48:47;;;;;;;;;44.50;36.75;;;;;10.73;64.31;102343.94;5051625;28;45324;-67
2022/04/30 00:51:15;;;;;;;;;37.75;32.50;;;;;10.71;63.60;102343.09;5049675;28;45261;-67
2022/04/30 00:53:44;;;;;;;;;46.50;33.25;;;;;10.73;64.44;102344.81;5048686;28;45722;-68
2022/04/30 00:56:12;;;;;;;;;46.75;32.75;;;;;10.67;64.17;102339.63;5047459;28;45750;-68
2022/04/30 00:58:42;;;;;;;;;48.50;34.50;;;;;10.70;63.63;102344.81;5047699;28;45364;-68
2022/04/30 01:01:08;;;;;;;;;41.25;34.25;;;;;10.70;64.93;102338.75;5049393;28;45520;-69
2022/04/30 01:03:34;;;;;;;;;45.75;36.00;;;;;10.72;64.82;102335.28;5048692;28;46527;-70
2022/04/30 01:06:01;;;;;;;;;37.25;29.50;;;;;10.69;66.04;102335.31;5047991;28;45368;-70
2022/04/30 01:08:28;;;;;;;;;46.00;35.50;;;;;10.64;65.31;102322.31;5050087;28;45220;-70
2022/04/30 01:10:54;;;;;;;;;37.50;32.00;;;;;10.60;67.51;102322.31;5048639;28;45432;-71
2022/04/30 01:13:20;;;;;;;;;26.50;24.00;;;;;10.58;66.33;102330.09;5046259;28;46345;-68
2022/04/30 01:15:46;;;;;;;;;47.50;35.50;;;;;10.59;66.35;102326.63;5044549;28;45486;-69
2022/04/30 01:18:12;;;;;;;;;38.50;29.00;;;;;10.57;67.48;102319.72;5047349;28;45518;-70
2022/04/30 01:20:41;;;;;;;;;37.50;31.00;;;;;10.58;67.13;102311.03;5047400;28;45895;-70
2022/04/30 01:23:08;;;;;;;;;42.25;31.50;;;;;10.58;67.81;102309.31;5048408;28;46077;-70
2022/04/30 01:25:34;;;;;;;;;37.75;31.75;;;;;10.59;67.27;102321.44;5047920;28;45406;-70
2022/04/30 01:28:01;;;;;;;;;44.75;34.25;;;;;10.60;67.88;102319.69;5050859;28;45329;-71
2022/04/30 01:30:27;;;;;;;;;36.25;29.75;;;;;10.63;66.93;102307.59;5048056;28;45400;-71
2022/04/30 01:38:20;;;;;;;;;42.75;35.00;;;;;10.61;66.51;102296.34;5049692;28;45397;-71
2022/04/30 01:40:46;;;;;;;;;38.75;33.50;;;;;10.70;67.12;102312.75;5049078;28;45387;-71
2022/04/30 01:43:13;;;;;;;;;40.50;34.00;;;;;10.74;67.02;102307.53;5047632;28;46250;-69
2022/04/30 01:45:38;;;;;;;;;32.75;29.50;;;;;10.76;66.67;102308.41;5048305;28;45896;-70
2022/04/30 01:48:05;;;;;;;;;42.75;33.00;;;;;10.75;67.03;102303.19;5050181;28;45375;-70
2022/04/30 01:50:33;;;;;;;;;37.00;26.50;;;;;10.74;69.54;102298.88;5049534;28;45260;-70
2022/04/30 01:52:59;;;;;;;;;45.25;30.75;;;;;10.72;67.87;102293.69;5047089;28;48078;-69
2022/04/30 01:55:24;;;;;;;;;37.50;29.50;;;;;10.77;67.26;102293.66;5050334;28;45667;-69
2022/04/30 01:57:50;;;;;;;;;38.00;27.75;;;;;10.80;67.93;102289.31;5051214;28;45859;-68
2022/04/30 02:00:20;;;;;;;;;30.00;28.50;;;;;10.82;66.99;102289.34;5040394;28;45309;-73
2022/04/30 02:02:48;;;;;;;;;40.25;30.75;;;;;10.88;67.54;102297.97;5042580;28;46460;-70
2022/04/30 02:05:16;;;;;;;;;40.75;33.50;;;;;10.88;66.93;102284.09;5045571;28;45407;-71
2022/04/30 02:07:49;;;;;;;;;27.25;27.25;;;;;10.88;67.86;102297.97;5046939;28;45248;-71
2022/04/30 02:10:15;;;;;;;;;41.00;29.75;;;;;10.86;68.70;102291.03;5048064;28;45435;-71
2022/04/30 02:12:41;;;;;;;;;38.25;29.00;;;;;10.81;66.89;102284.97;5048917;28;45469;-71
2022/04/30 02:15:09;;;;;;;;;44.75;32.75;;;;;10.74;69.04;102286.75;5046138;28;45481;-72
2022/04/30 02:17:38;;;;;;;;;33.75;26.25;;;;;10.70;68.81;102286.75;5047670;28;45230;-71
2022/04/30 02:20:27;;;;;;;;;39.75;33.25;;;;;10.68;68.69;102278.09;5048048;28;45559;-71
2022/04/30 02:22:55;;;;;;;;;38.00;27.50;;;;;10.63;70.29;102281.59;5046129;28;48011;-71
2022/04/30 02:25:22;;;;;;;;;41.00;30.75;;;;;10.60;68.83;102283.31;5043241;28;45297;-70
2022/04/30 02:27:49;;;;;;;;;32.50;25.50;;;;;10.53;71.01;102277.28;5051906;28;45907;-70
2022/04/30 02:30:17;;;;;;;;;35.50;28.75;;;;;10.47;69.34;102272.09;5046267;28;45498;-70
2022/04/30 02:32:47;;;;;;;;;23.25;21.25;;;;;10.44;68.99;102277.31;5047693;28;46272;-70
2022/04/30 02:35:15;;;;;;;;;38.00;30.00;;;;;10.34;70.84;102279.03;5046385;28;45396;-70
2022/04/30 02:37:44;;;;;;;;;37.50;29.50;;;;;10.33;69.93;102284.25;5043903;28;45443;-69
2022/04/30 02:40:17;;;;;;;;;40.25;31.50;;;;;10.31;69.99;102284.25;5044398;28;45717;-71
2022/04/30 02:42:44;;;;;;;;;33.75;25.25;;;;;10.33;69.80;102282.50;5051328;28;46591;-71
2022/04/30 02:45:11;;;;;;;;;42.25;34.75;;;;;10.37;69.56;102283.38;5045857;28;45482;-69
2022/04/30 02:47:38;;;;;;;;;39.00;30.75;;;;;10.38;69.76;102279.03;5047691;28;45474;-69
2022/04/30 02:50:08;;;;;;;;;43.00;30.50;;;;;10.36;69.70;102276.44;5046949;28;45537;-69
2022/04/30 02:52:34;;;;;;;;;35.75;29.00;;;;;10.35;69.34;102275.56;5048391;28;46143;-69
2022/04/30 02:55:00;;;;;;;;;39.50;32.00;;;;;10.27;70.81;102274.75;5047582;28;45313;-69
2022/04/30 02:57:27;;;;;;;;;36.50;29.00;;;;;10.25;70.43;102278.22;5047377;28;45922;-69
2022/04/30 02:59:55;;;;;;;;;41.00;30.75;;;;;10.27;69.99;102276.47;5043139;28;45379;-69
2022/04/30 03:02:22;;;;;;;;;35.25;30.25;;;;;10.31;70.50;102267.78;5045188;28;48155;-70
2022/04/30 03:04:51;;;;;;;;;35.00;28.75;;;;;10.31;70.10;102273.84;5048387;28;45793;-70
2022/04/30 03:07:22;;;;;;;;;36.75;31.00;;;;;10.31;69.61;102275.59;5045746;28;45288;-70
2022/04/30 03:09:49;;;;;;;;;37.50;27.25;;;;;10.31;70.03;102273.00;5047339;28;45624;-70
2022/04/30 03:12:16;;;;;;;;;41.50;34.00;;;;;10.32;69.59;102274.72;5049192;28;45192;-70
2022/04/30 03:14:42;;;;;;;;;35.50;29.00;;;;;10.35;70.47;102267.78;5048650;28;45373;-68
2022/04/30 03:22:37;;;;;;;;;38.00;29.25;;;;;10.28;69.62;102265.22;5044298;28;45399;-68
2022/04/30 03:25:03;;;;;;;;;38.25;28.25;;;;;10.30;68.96;102266.06;5044726;28;45549;-69
2022/04/30 03:27:28;;;;;;;;;46.00;32.50;;;;;10.30;69.05;102260.88;5043259;28;45366;-69
2022/04/30 03:29:54;;;;;;;;;37.25;27.50;;;;;10.27;70.18;102259.16;5050810;28;45470;-69
2022/04/30 03:32:20;;;;;;;;;34.50;25.25;;;;;10.26;70.53;102262.63;5046857;28;47925;-71
2022/04/30 03:34:46;;;;;;;;;39.25;30.00;;;;;10.24;70.16;102263.50;5050877;28;45303;-70
2022/04/30 03:37:13;;;;;;;;;41.00;32.75;;;;;10.19;70.45;102266.03;5047768;28;45658;-70
2022/04/30 03:39:38;;;;;;;;;39.50;30.75;;;;;10.25;70.29;102260.03;5051124;28;45601;-70
2022/04/30 03:42:05;;;;;;;;;40.25;32.25;;;;;10.28;69.74;102260.88;5050287;28;46959;-70
2022/04/30 03:44:30;;;;;;;;;37.50;30.75;;;;;10.28;69.69;102260.88;5051524;28;45468;-70
2022/04/30 03:46:55;;;;;;;;;36.00;29.50;;;;;10.28;70.62;102257.41;5053120;28;45406;-68
2022/04/30 03:49:21;;;;;;;;;44.25;31.00;;;;;10.26;70.30;102264.34;5052957;28;45548;-68
2022/04/30 03:51:46;;;;;;;;;48.50;32.50;;;;;10.21;70.94;102258.28;5050071;28;45625;-68
2022/04/30 03:54:11;;;;;;;;;39.00;32.00;;;;;10.17;70.63;102264.31;5050558;28;45513;-68
2022/04/30 03:56:37;;;;;;;;;35.75;31.50;;;;;10.16;70.15;102262.59;5054994;28;45506;-69
2022/04/30 03:59:03;;;;;;;;;45.00;36.00;;;;;10.14;70.97;102260.00;5050389;28;45501;-68
2022/04/30 04:01:28;;;;;;;;;32.75;18.75;;;;;10.10;72.41;102262.59;5050969;28;46421;-70
2022/04/30 04:03:54;;;;;;;;;41.75;34.50;;;;;10.08;72.49;102262.59;5052147;28;45353;-70
2022/04/30 04:06:20;;;;;;;;;43.75;30.25;;;;;10.05;71.90;102260.00;5052257;28;45459;-69
2022/04/30 04:08:51;;;;;;;;;40.25;30.00;;;;;10.04;71.69;102259.16;5047920;28;45563;-68
2022/04/30 04:11:16;;;;;;;;;48.25;34.25;;;;;10.06;70.43;102259.16;5037125;28;46498;-68
2022/04/30 04:19:10;;;;;;;;;35.00;31.00;;;;;10.14;71.72;102262.59;5041467;28;45237;-68
2022/04/30 04:21:35;;;;;;;;;37.25;26.50;;;;;10.14;71.63;102257.38;5039911;28;46884;-68
2022/04/30 04:26:44;;;;;;;;;41.75;29.25;;;;;10.16;71.33;102260.84;5041422;28;45300;-67
2022/04/30 04:29:10;;;;;;;;;42.25;34.00;;;;;10.19;71.70;102265.16;5041060;28;46281;-68
2022/04/30 04:31:36;;;;;;;;;50.25;35.75;;;;;10.21;71.12;102281.66;5040435;28;45349;-69
2022/04/30 04:34:02;;;;;;;;;43.25;36.25;;;;;10.16;73.13;102263.44;5039491;28;45385;-69
2022/04/30 04:36:27;;;;;;;;;47.75;35.75;;;;;10.16;71.37;102270.38;5041151;28;45374;-69
2022/04/30 04:38:53;;;;;;;;;43.25;34.75;;;;;10.16;71.64;102268.66;5040767;28;45592;-69
2022/04/30 04:41:18;;;;;;;;;45.25;30.75;;;;;10.17;74.04;102267.78;5038653;28;47368;-70
2022/04/30 04:43:43;;;;;;;;;35.25;32.00;;;;;10.14;73.42;102269.53;5040706;28;45347;-70
2022/04/30 04:46:09;;;;;;;;;41.75;30.25;;;;;10.19;73.47;102279.03;5040865;28;45297;-68
2022/04/30 04:48:36;;;;;;;;;29.25;25.25;;;;;10.17;74.49;102275.56;5040584;28;45391;-68
2022/04/30 04:51:02;;;;;;;;;48.50;28.00;;;;;10.20;72.81;102278.16;5040860;28;46412;-68
2022/04/30 04:53:28;;;;;;;;;44.50;36.00;;;;;10.22;72.47;102281.69;5036937;28;45257;-69
2022/04/30 04:55:53;;;;;;;;;44.75;33.50;;;;;10.24;73.47;102282.53;5041154;28;45233;-69
2022/04/30 04:58:19;;;;;;;;;40.00;33.75;;;;;10.27;74.03;102292.06;5040700;28;45494;-69
2022/04/30 05:00:44;;;;;;;;;43.25;35.50;;;;;10.26;72.63;102283.41;5040535;28;45178;-69
2022/04/30 05:03:09;;;;;;;;;41.00;29.75;;;;;10.26;74.85;102291.19;5041952;28;45303;-69
2022/04/30 05:05:35;;;;;;;;;43.50;36.25;;;;;10.19;73.43;102288.56;5040858;28;45214;-69
2022/04/30 05:08:01;;;;;;;;;45.75;37.25;;;;;10.14;73.24;102285.97;5044101;28;45381;-69
2022/04/30 05:10:26;;;;;;;;;41.25;25.50;;;;;10.14;73.98;102291.16;5040487;28;45233;-69
2022/04/30 05:12:52;;;;;;;;;42.50;33.50;;;;;10.11;73.31;102285.13;5040340;28;45373;-69
2022/04/30 05:15:17;;;;;;;;;43.25;34.00;;;;;10.12;73.72;102297.22;5040529;28;45459;-69
2022/04/30 05:17:42;;;;;;;;;37.75;30.00;;;;;10.12;74.43;102297.22;5040405;28;45306;-68
2022/04/30 05:20:08;;;;;;;;;57.25;39.00;;;;;10.17;72.74;102306.75;5040576;28;45468;-67
2022/04/30 05:22:34;;;;;;;;;50.00;37.75;;;;;10.23;72.92;102304.19;5040155;28;45488;-68
2022/04/30 05:24:59;;;;;;;;;42.25;32.00;;;;;10.30;74.37;102313.69;5040693;28;45248;-67
2022/04/30 05:27:25;;;;;;;;;48.00;37.75;;;;;10.40;73.37;102306.75;5040256;28;45356;-69
2022/04/30 05:29:50;;;;;;;;;47.50;29.75;;;;;10.46;73.40;102305.91;5038790;28;46939;-67
2022/04/30 05:32:16;;;;;;;;;43.75;34.00;;;;;10.51;72.35;102302.41;5043334;28;45476;-67
2022/04/30 05:34:41;;;;;;;;;45.50;31.25;;;;;10.55;72.24;102296.31;5039285;28;45252;-71
2022/04/30 05:37:07;;;;;;;;;54.00;39.25;;;;;10.64;72.46;102308.44;5039982;28;45212;-67
2022/04/30 05:39:32;;;;;;;;;43.00;34.00;;;;;10.66;72.58;102311.91;5040012;28;45368;-70
2022/04/30 05:41:57;;;;;;;;;51.75;35.75;;;;;10.59;72.37;102313.63;5038796;28;45572;-71
2022/04/30 05:44:23;;;;;;;;;43.50;34.25;;;;;10.60;72.74;102311.91;5040181;28;45464;-71
2022/04/30 05:46:48;;;;;;;;;40.00;30.25;;;;;10.56;72.31;102325.78;5039974;28;45157;-72
2022/04/30 05:49:14;;;;;;;;;50.50;35.00;;;;;10.53;71.50;102320.59;5039646;28;46654;-70
2022/04/30 05:51:39;;;;;;;;;54.75;36.50;;;;;10.49;71.57;102322.34;5038680;28;45222;-71
2022/04/30 05:54:05;;;;;;;;;39.75;26.25;;;;;10.53;71.29;102325.78;5047158;28;45945;-71
2022/04/30 05:56:30;;;;;;;;;44.75;36.50;;;;;10.48;72.14;102330.16;5047956;28;45408;-71
2022/04/30 05:58:56;;;;;;;;;45.50;32.75;;;;;10.44;72.11;102324.09;5048894;28;45442;-70
2022/04/30 06:01:21;;;;;;;;;40.50;30.75;;;;;10.46;70.86;102330.16;5050536;28;45425;-70
2022/04/30 06:03:46;;;;;;;;;38.50;29.75;;;;;10.44;70.97;102320.63;5050398;28;45418;-70
2022/04/30 06:06:12;;;;;;;;;38.00;32.50;;;;;10.49;70.02;102331.88;5046437;28;45592;-70
2022/04/30 06:08:37;;;;;;;;;46.50;36.50;;;;;10.46;70.47;102332.75;5045488;28;45502;-70
2022/04/30 06:11:03;;;;;;;;;42.75;31.00;;;;;10.45;70.60;102324.94;5048318;28;45352;-70
2022/04/30 06:13:28;;;;;;;;;46.00;34.50;;;;;10.46;71.58;102340.53;5047622;28;45256;-70
2022/04/30 06:15:54;;;;;;;;;43.00;32.25;;;;;10.48;70.33;102338.81;5049003;28;45492;-70
2022/04/30 06:18:20;;;;;;;;;46.25;33.75;;;;;10.46;71.60;102332.75;5046559;28;46290;-70
2022/04/30 06:20:45;;;;;;;;;47.00;33.50;;;;;10.51;71.27;102351.78;5039471;28;45695;-70
2022/04/30 06:23:15;;;;;;;;;44.25;35.00;;;;;10.52;71.87;102347.47;5039695;28;45374;-69
2022/04/30 06:25:41;;;;;;;;;43.00;36.25;;;;;10.55;71.36;102345.72;5039319;28;45161;-71
2022/04/30 06:28:08;;;;;;;;;38.25;29.25;;;;;10.63;71.67;102349.19;5040206;28;46388;-71
2022/04/30 06:30:35;;;;;;;;;39.25;33.75;;;;;10.66;71.21;102358.72;5045824;28;47187;-71
2022/04/30 06:33:00;;;;;;;;;38.25;33.25;;;;;10.72;70.08;102350.88;5052892;28;45445;-72
2022/04/30 06:35:26;;;;;;;;;46.00;31.25;;;;;10.79;70.79;102352.59;5041051;28;45277;-72
2022/04/30 06:37:51;;;;;;;;;35.75;25.75;;;;;10.92;70.00;102356.03;5041860;28;47084;-71
2022/04/30 06:40:16;;;;;;;;;39.50;36.00;;;;;10.98;69.83;102348.19;5047157;28;45394;-71
2022/04/30 06:42:44;;;;;;;;;42.75;36.00;;;;;11.11;69.56;102355.09;5047587;28;45269;-72
2022/04/30 06:45:11;;;;;;;;;32.25;26.75;;;;;11.19;68.92;102355.94;5038930;28;45357;-71
2022/04/30 06:47:36;;;;;;;;;39.00;30.00;;;;;11.28;69.25;102353.31;5037964;28;47364;-71
2022/04/30 06:50:06;;;;;;;;;37.25;29.50;;;;;11.42;69.06;102353.25;5045629;28;45485;-69
2022/04/30 06:52:31;;;;;;;;;44.75;34.75;;;;;11.61;68.38;102358.31;5048335;28;45251;-69
2022/04/30 06:57:43;;;;;;;;;39.50;26.00;;;;;11.68;66.74;102366.09;5043078;28;46390;-69
2022/04/30 07:02:55;;;;;;;;;32.75;29.00;;;;;11.63;66.48;102357.47;5042112;28;45347;-71
2022/04/30 07:05:21;;;;;;;;;38.50;36.00;;;;;11.55;66.01;102348.81;5042338;28;45458;-71
2022/04/30 07:07:46;;;;;;;;;32.25;31.00;;;;;11.52;66.48;102356.66;5055084;28;45419;-70
2022/04/30 07:10:12;;;;;;;;;38.25;30.00;;;;;11.57;66.33;102373.97;5051386;28;45415;-70
2022/04/30 07:12:37;;;;;;;;;44.75;32.25;;;;;11.58;66.17;102365.28;5050547;28;45498;-68
2022/04/30 07:15:02;;;;;;;;;33.75;28.25;;;;;11.66;66.13;102375.66;5050424;28;45395;-69
2022/04/30 07:17:28;;;;;;;;;38.25;24.75;;;;;11.74;65.97;102383.44;5050192;28;46607;-69
2022/04/30 07:19:53;;;;;;;;;34.75;25.75;;;;;11.78;66.06;102380.81;5050722;28;45380;-69
2022/04/30 07:22:18;;;;;;;;;45.75;33.25;;;;;11.83;65.34;102379.06;5054430;28;45408;-69
2022/04/30 07:24:44;;;;;;;;;45.75;37.00;;;;;11.83;64.53;102384.28;5050449;28;45490;-69
2022/04/30 07:27:09;;;;;;;;;41.00;33.00;;;;;11.84;65.01;102386.00;5047077;28;45403;-70
2022/04/30 07:29:36;;;;;;;;;27.00;20.25;;;;;11.94;64.84;102391.16;5047573;28;45407;-70
2022/04/30 07:32:02;;;;;;;;;44.75;31.50;;;;;12.01;64.64;102388.47;5053112;28;45384;-69
2022/04/30 07:34:27;;;;;;;;;39.00;33.00;;;;;11.99;64.62;102382.41;5050903;28;45531;-69
2022/04/30 07:36:53;;;;;;;;;34.75;29.50;;;;;12.02;64.50;102386.78;5044913;28;46334;-71
2022/04/30 07:39:18;;;;;;;;;37.50;29.50;;;;;12.02;64.10;102387.63;5041713;28;45267;-68
2022/04/30 07:41:44;;;;;;;;;35.75;30.75;;;;;12.07;64.18;102391.06;5041806;28;45478;-70
2022/04/30 07:44:10;;;;;;;;;35.00;27.50;;;;;12.17;64.10;102387.50;5041767;28;45157;-70
2022/04/30 07:46:37;;;;;;;;;27.25;24.00;;;;;12.29;63.88;102380.47;5041533;28;45189;-71
2022/04/30 07:49:05;;;;;;;;;28.50;27.00;;;;;12.40;63.72;102389.03;5041955;28;45519;-70
2022/04/30 07:51:52;;;;;;;;;29.25;22.25;;;;;12.48;63.23;102385.50;5041906;28;45263;-70
2022/04/30 07:54:18;;;;;;;;;39.75;28.00;;;;;12.51;62.86;102386.38;5041624;28;45253;-70
2022/04/30 07:56:43;;;;;;;;;29.25;19.75;;;;;12.55;62.79;102399.34;5041616;28;46288;-70
2022/04/30 07:59:08;;;;;;;;;26.25;22.25;;;;;12.58;62.73;102386.28;5041570;28;45253;-70
2022/04/30 08:01:34;;;;;;;;;36.00;24.00;;;;;12.62;62.62;102390.59;5041576;28;45301;-71
2022/04/30 08:03:59;;;;;;;;;27.50;23.75;;;;;12.76;62.68;102382.63;5040234;28;45548;-71
2022/04/30 08:06:24;;;;;;;;;27.50;25.25;;;;;12.97;61.94;102379.78;5041186;28;45410;-70
2022/04/30 08:08:50;;;;;;;;;34.75;31.50;;;;;13.05;61.94;102377.97;5041119;28;45328;-69
2022/04/30 08:11:15;;;;;;;;;30.75;22.00;;;;;13.14;61.09;102378.72;5041461;28;45380;-70
2022/04/30 08:13:40;;;;;;;;;33.50;27.75;;;;;13.13;60.71;102377.00;5041491;28;45849;-69
2022/04/30 08:16:09;;;;;;;;;36.50;28.75;;;;;13.17;60.53;102383.91;5040974;28;45294;-70
2022/04/30 08:18:35;;;;;;;;;28.75;26.50;;;;;13.13;58.77;102387.44;5041508;28;45412;-70
2022/04/30 08:21:01;;;;;;;;;34.75;33.00;;;;;13.15;59.47;102376.09;5037841;28;45370;-70
2022/04/30 08:23:26;;;;;;;;;38.00;30.00;;;;;13.18;59.57;102373.47;5041122;28;46147;-70
2022/04/30 08:25:51;;;;;;;;;30.25;23.00;;;;;13.25;59.31;102376.91;5040876;28;46419;-70
2022/04/30 08:28:17;;;;;;;;;35.00;28.00;;;;;13.25;58.46;102380.38;5041067;28;45441;-70
2022/04/30 08:30:42;;;;;;;;;29.00;23.25;;;;;13.30;58.59;102388.16;5038369;28;45239;-69
2022/04/30 08:33:07;;;;;;;;;36.25;30.00;;;;;13.33;58.71;102388.09;5041194;28;45469;-70
2022/04/30 08:35:33;;;;;;;;;27.50;25.50;;;;;13.36;58.42;102391.53;5040301;28;46164;-70
2022/04/30 08:37:58;;;;;;;;;28.25;24.50;;;;;13.40;58.68;102388.00;5053318;28;45246;-69
2022/04/30 08:40:24;;;;;;;;;29.75;26.50;;;;;13.51;58.36;102387.88;5050115;28;45363;-69
2022/04/30 08:42:50;;;;;;;;;33.25;26.50;;;;;13.64;58.34;102378.13;5050175;28;45252;-69
2022/04/30 08:45:15;;;;;;;;;29.75;24.25;;;;;13.69;58.37;102378.91;5046673;28;46449;-69
2022/04/30 08:47:42;;;;;;;;;27.00;22.50;;;;;13.77;57.93;102379.66;5051819;28;46528;-69
2022/04/30 08:50:13;;;;;;;;;28.75;25.75;;;;;13.88;58.18;102369.94;5043388;28;45513;-70
2022/04/30 08:52:39;;;;;;;;;32.25;26.25;;;;;13.92;55.70;102381.19;5049830;28;45285;-70
2022/04/30 08:55:06;;;;;;;;;20.75;16.50;;;;;13.89;56.68;102376.88;5044390;28;45430;-70
2022/04/30 08:57:31;;;;;;;;;33.50;26.00;;;;;13.96;56.07;102375.03;5046095;28;45254;-70
2022/04/30 08:59:58;;;;;;;;;33.50;25.50;;;;;13.91;56.28;102369.88;5039533;28;45337;-70
2022/04/30 09:02:24;;;;;;;;;29.25;24.00;;;;;13.94;56.16;102368.97;5040909;28;45543;-70
2022/04/30 09:04:50;;;;;;;;;33.75;27.75;;;;;13.92;55.94;102355.06;5042661;28;45518;-70
2022/04/30 09:07:21;;;;;;;;;33.00;27.00;;;;;13.90;56.07;102369.91;5040284;28;45294;-73
2022/04/30 09:09:58;;;;;;;;;18.25;17.50;;;;;13.94;55.19;102363.72;5042343;28;45429;-69
2022/04/30 09:12:24;;;;;;;;;26.75;21.25;;;;;14.02;55.75;102369.72;5040146;28;45361;-67
2022/04/30 09:14:50;;;;;;;;;23.25;16.75;;;;;14.17;55.69;102368.59;5040377;28;45412;-68
2022/04/30 09:17:16;;;;;;;;;21.25;20.25;;;;;14.21;54.22;102367.66;5039472;28;45630;-67
2022/04/30 09:19:56;;;;;;;;;27.25;21.25;;;;;14.16;51.32;102364.25;5040778;28;45464;-69
2022/04/30 09:22:33;;;;;;;;;24.25;20.00;;;;;14.27;53.26;102363.19;5038879;28;45587;-68
2022/04/30 09:24:59;;;;;;;;;15.75;13.50;;;;;14.33;52.63;102367.44;5040186;28;46173;-74
2022/04/30 09:27:25;;;;;;;;;22.75;18.00;;;;;14.39;52.60;102356.00;5037386;28;45962;-71
2022/04/30 09:29:52;;;;;;;;;16.00;13.00;;;;;14.36;50.70;102363.91;5040299;28;45435;-70
2022/04/30 09:32:25;;;;;;;;;21.00;18.75;;;;;14.42;52.29;102354.22;5039130;28;45281;-70
2022/04/30 09:37:41;;;;;;;;;21.75;17.50;;;;;14.67;50.12;102352.06;5037121;28;45427;-73
2022/04/30 09:40:13;;;;;;;;;16.00;14.75;;;;;14.80;50.42;102357.91;5037963;28;45675;-71
2022/04/30 09:42:38;;;;;;;;;21.75;18.25;;;;;14.84;50.79;102362.22;5037181;28;45607;-71
2022/04/30 09:45:05;;;;;;;;;25.00;20.50;;;;;14.84;50.55;102354.38;5037256;28;46811;-72
2022/04/30 09:47:33;;;;;;;;;19.00;14.25;;;;;14.89;49.65;102347.28;5037066;28;45861;-71
2022/04/30 09:55:30;;;;;;;;;15.00;12.50;;;;;15.16;48.67;102345.84;5039218;28;45375;-70
2022/04/30 09:57:59;;;;;;;;;14.50;12.00;;;;;15.23;48.50;102350.06;5039215;28;45272;-71
2022/04/30 10:00:24;;;;;;;;;20.25;14.75;;;;;15.23;47.13;102349.22;5038449;28;45281;-72
2022/04/30 10:02:58;;;;;;;;;18.25;16.75;;;;;15.24;48.68;102349.19;5041826;28;45489;-72
2022/04/30 10:05:25;;;;;;;;;16.50;13.25;;;;;15.20;48.62;102340.50;5039836;28;45391;-74
2022/04/30 10:07:51;;;;;;;;;15.00;14.50;;;;;15.19;47.66;102341.41;5037953;28;45915;-70
2022/04/30 10:10:28;;;;;;;;;18.75;13.50;;;;;15.17;47.53;102342.34;5039871;28;45350;-72
2022/04/30 10:13:11;;;;;;;;;16.00;14.75;;;;;15.20;47.00;102342.25;5032962;28;45287;-69
2022/04/30 10:15:51;;;;;;;;;17.75;14.75;;;;;15.29;47.53;102328.97;5039263;28;46632;-71
2022/04/30 10:18:18;;;;;;;;;13.75;12.50;;;;;15.35;45.59;102336.69;5039540;28;45453;-70
2022/04/30 10:20:56;;;;;;;;;13.75;12.25;;;;;15.39;46.07;102333.09;5039460;28;45561;-68
2022/04/30 10:23:22;;;;;;;;;15.75;15.25;;;;;15.41;45.55;102335.69;5039192;28;45239;-69
2022/04/30 10:25:47;;;;;;;;;18.50;16.00;;;;;15.42;46.82;102332.22;5039358;28;46283;-73
2022/04/30 10:28:16;;;;;;;;;17.00;15.50;;;;;15.46;44.42;102328.63;5039138;28;45448;-71
2022/04/30 10:30:43;;;;;;;;;17.00;15.75;;;;;15.52;46.16;102331.09;5039219;28;45439;-73
2022/04/30 10:33:09;;;;;;;;;19.75;16.25;;;;;15.58;45.87;102317.84;5039640;28;45210;-71
2022/04/30 10:35:38;;;;;;;;;15.75;13.25;;;;;15.57;45.04;102328.34;5039022;28;46380;-71
2022/04/30 10:38:18;;;;;;;;;16.00;15.75;;;;;15.56;46.04;102324.00;5037342;28;45882;-66
2022/04/30 10:40:58;;;;;;;;;16.25;13.75;;;;;15.51;45.21;102314.50;5041519;28;45348;-78
2022/04/30 10:43:26;;;;;;;;;21.00;17.00;;;;;15.46;45.37;102312.91;5051074;28;45461;-75
2022/04/30 10:45:53;;;;;;;;;18.25;15.00;;;;;15.51;45.74;102309.28;5035169;28;45785;-73
2022/04/30 10:48:19;;;;;;;;;17.25;13.00;;;;;15.58;44.82;102309.13;5043386;28;45528;-73
2022/04/30 10:50:47;;;;;;;;;15.75;12.25;;;;;15.61;45.51;102309.06;5045830;28;45512;-78
2022/04/30 10:53:14;;;;;;;;;16.25;15.00;;;;;15.60;44.08;102315.22;5041697;28;45373;-72
2022/04/30 10:55:39;;;;;;;;;16.00;14.00;;;;;15.63;45.40;102307.31;5042920;28;45768;-71
2022/04/30 10:58:05;;;;;;;;;19.25;15.50;;;;;15.70;45.50;102311.50;5050154;28;45839;-71
2022/04/30 11:00:31;;;;;;;;;18.00;13.00;;;;;15.79;43.82;102295.53;5040904;28;45699;-72
2022/04/30 11:03:07;;;;;;;;;14.50;10.00;;;;;15.92;44.93;102302.22;5046355;28;45390;-77
2022/04/30 11:05:32;;;;;;;;;16.00;12.25;;;;;16.03;43.59;102281.84;5046860;28;46656;-74
2022/04/30 11:08:01;;;;;;;;;7.50;7.25;;;;;16.01;43.20;102293.25;5048224;28;45548;-74
2022/04/30 11:10:26;;;;;;;;;9.25;8.25;;;;;16.01;42.71;102301.97;5043784;28;45565;-77
2022/04/30 11:13:03;;;;;;;;;15.50;10.75;;;;;16.03;43.34;102299.34;5042048;28;45207;-70
2022/04/30 11:15:29;;;;;;;;;9.00;8.50;;;;;16.10;42.35;102291.25;5042041;28;46761;-74
2022/04/30 11:17:58;;;;;;;;;11.25;9.75;;;;;16.22;41.10;102295.34;5040012;28;45350;-70
2022/04/30 11:20:25;;;;;;;;;10.25;10.25;;;;;16.29;42.20;102277.66;5024259;28;45355;-70
2022/04/30 11:23:00;;;;;;;;;14.25;12.50;;;;;16.34;40.87;102286.28;5040851;28;45199;-68
2022/04/30 11:25:36;;;;;;;;;7.50;6.50;;;;;16.35;40.13;102285.38;5038194;28;46180;-68
2022/04/30 11:28:09;;;;;;;;;6.00;4.00;;;;;16.43;41.10;102271.16;5040877;28;45449;-70
2022/04/30 11:30:39;;;;;;;;;12.50;9.75;;;;;16.51;41.47;102285.81;5039676;28;45195;-71
2022/04/30 11:33:05;;;;;;;;;6.75;5.75;;;;;16.46;41.39;102275.44;5040950;28;45724;-72
2022/04/30 11:35:31;;;;;;;;;10.25;7.25;;;;;16.36;41.05;102258.22;5040506;28;47156;-68
2022/04/30 11:37:57;;;;;;;;;3.25;3.25;;;;;16.28;40.36;102273.31;5040808;28;45833;-69
2022/04/30 11:40:24;;;;;;;;;7.00;6.25;;;;;16.25;39.55;102278.66;5039851;28;45227;-70